createdAt,value
2018-06-11T00:01:51.790Z,99.90
2018-06-11T00:04:19.883Z,99.90
2018-06-11T00:06:47.914Z,99.90
2018-06-11T00:09:16.002Z,99.90
2018-06-11T00:11:44.046Z,99.90
2018-06-11T00:14:12.142Z,99.90
2018-06-11T00:16:40.641Z,99.90
2018-06-11T00:19:08.672Z,99.90
2018-06-11T00:21:36.800Z,99.90
2018-06-11T00:24:04.775Z,99.90
2018-06-11T00:26:32.806Z,99.90
2018-06-11T00:29:00.844Z,99.90
2018-06-11T00:31:28.949Z,99.90
2018-06-11T00:33:57.034Z,99.90
2018-06-11T00:36:25.066Z,99.90
2018-06-11T00:38:53.100Z,99.90
2018-06-11T00:41:21.134Z,99.90
2018-06-11T00:43:49.326Z,99.90
2018-06-11T00:46:17.353Z,99.90
2018-06-11T00:48:45.480Z,99.90
2018-06-11T00:51:13.514Z,99.90
2018-06-11T00:53:41.567Z,99.90
2018-06-11T00:56:10.000Z,99.90
2018-06-11T00:58:38.170Z,99.90
2018-06-11T01:01:06.231Z,99.90
2018-06-11T01:03:34.251Z,99.90
2018-06-11T01:06:02.275Z,99.90
2018-06-11T01:08:30.316Z,99.90
2018-06-11T01:10:58.345Z,99.90
2018-06-11T01:13:26.381Z,99.90
2018-06-11T01:15:54.401Z,99.90
2018-06-11T01:18:22.491Z,99.90
2018-06-11T01:20:50.504Z,99.90
2018-06-11T01:23:18.529Z,99.90
2018-06-11T01:25:46.652Z,99.90
2018-06-11T01:28:14.721Z,99.90
2018-06-11T01:30:42.742Z,99.90
2018-06-11T01:33:10.798Z,99.90
2018-06-11T01:35:38.835Z,99.90
2018-06-11T01:38:06.939Z,99.90
2018-06-11T01:40:34.985Z,99.90
2018-06-11T01:43:03.287Z,99.90
2018-06-11T01:45:31.357Z,99.90
2018-06-11T01:47:59.546Z,99.90
2018-06-11T01:50:27.586Z,99.90
2018-06-11T01:52:55.609Z,99.90
2018-06-11T01:55:23.641Z,99.90
2018-06-11T01:57:51.826Z,99.90
2018-06-11T02:00:19.833Z,99.90
2018-06-11T02:02:47.860Z,99.90
2018-06-11T02:05:16.015Z,99.90
2018-06-11T02:07:44.081Z,99.90
2018-06-11T02:10:12.322Z,99.90
2018-06-11T02:12:40.337Z,99.90
2018-06-11T02:15:08.406Z,99.90
2018-06-11T02:17:36.480Z,99.90
2018-06-11T02:20:04.533Z,99.90
2018-06-11T02:22:32.542Z,99.90
2018-06-11T02:25:00.628Z,99.90
2018-06-11T02:27:28.661Z,99.90
2018-06-11T02:29:56.706Z,99.90
2018-06-11T02:32:24.824Z,99.90
2018-06-11T02:34:52.868Z,99.90
2018-06-11T02:37:20.958Z,99.90
2018-06-11T02:39:49.022Z,99.90
2018-06-11T02:42:17.102Z,99.90
2018-06-11T02:44:45.193Z,99.90
2018-06-11T02:47:13.240Z,99.90
2018-06-11T02:49:41.272Z,99.90
2018-06-11T02:52:09.307Z,99.90
2018-06-11T02:54:37.474Z,99.90
2018-06-11T02:57:05.496Z,99.90
2018-06-11T02:59:33.613Z,99.90
2018-06-11T03:02:01.807Z,99.90
2018-06-11T03:04:29.858Z,99.90
2018-06-11T03:06:57.889Z,99.90
2018-06-11T03:09:25.945Z,99.90
2018-06-11T03:11:54.036Z,99.90
2018-06-11T03:14:22.085Z,99.90
2018-06-11T03:16:50.109Z,99.90
2018-06-11T03:19:18.221Z,99.90
2018-06-11T03:21:46.288Z,99.90
2018-06-11T03:24:14.321Z,99.90
2018-06-11T03:26:42.364Z,99.90
2018-06-11T03:29:10.469Z,99.90
2018-06-11T03:31:38.545Z,99.90
2018-06-11T03:34:06.574Z,99.90
2018-06-11T03:36:34.640Z,99.90
2018-06-11T03:39:02.658Z,99.90
2018-06-11T03:41:30.698Z,99.90
2018-06-11T03:43:58.806Z,99.90
2018-06-11T03:46:26.886Z,99.90
2018-06-11T03:48:54.903Z,99.90
2018-06-11T03:51:23.022Z,99.90
2018-06-11T03:53:51.050Z,99.90
2018-06-11T03:56:19.086Z,99.90
2018-06-11T03:58:47.146Z,99.90
2018-06-11T04:01:15.218Z,99.90
2018-06-11T04:03:43.242Z,99.90
2018-06-11T04:06:11.348Z,99.90
2018-06-11T04:08:39.448Z,99.90
2018-06-11T04:11:07.607Z,99.90
2018-06-11T04:13:35.606Z,99.90
2018-06-11T04:16:03.671Z,99.90
2018-06-11T04:18:31.717Z,99.90
2018-06-11T04:20:59.770Z,99.90
2018-06-11T04:23:27.857Z,99.90
2018-06-11T04:25:55.936Z,99.90
2018-06-11T04:28:23.960Z,99.90
2018-06-11T04:30:52.182Z,99.90
2018-06-11T04:33:20.214Z,99.90
2018-06-11T04:35:48.258Z,99.90
2018-06-11T04:38:16.301Z,99.90
2018-06-11T04:40:44.366Z,99.90
2018-06-11T04:43:12.405Z,99.90
2018-06-11T04:45:40.509Z,99.90
2018-06-11T04:48:08.592Z,99.90
2018-06-11T04:50:36.653Z,99.90
2018-06-11T04:53:04.763Z,99.90
2018-06-11T04:55:32.828Z,99.90
2018-06-11T04:58:00.824Z,99.90
2018-06-11T05:00:28.847Z,99.90
2018-06-11T05:02:56.918Z,99.90
2018-06-11T05:05:24.972Z,99.90
2018-06-11T05:07:53.001Z,99.90
2018-06-11T05:10:21.050Z,99.90
2018-06-11T05:12:49.101Z,99.90
2018-06-11T05:15:17.203Z,99.90
2018-06-11T05:17:45.244Z,99.90
2018-06-11T05:20:13.375Z,99.90
2018-06-11T05:22:41.418Z,99.90
2018-06-11T05:25:09.462Z,99.90
2018-06-11T05:27:37.534Z,99.90
2018-06-11T05:30:05.544Z,99.90
2018-06-11T05:32:33.729Z,99.90
2018-06-11T05:35:01.725Z,99.90
2018-06-11T05:37:29.827Z,99.90
2018-06-11T05:39:57.907Z,99.90
2018-06-11T05:42:25.970Z,99.90
2018-06-11T05:44:53.973Z,99.90
2018-06-11T05:47:22.111Z,99.90
2018-06-11T05:49:50.125Z,99.90
2018-06-11T05:52:18.172Z,99.90
2018-06-11T05:54:46.228Z,99.90
2018-06-11T05:57:14.316Z,99.90
2018-06-11T05:59:42.343Z,99.90
2018-06-11T06:02:10.442Z,99.90
2018-06-11T06:04:38.493Z,99.90
2018-06-11T06:07:06.538Z,99.90
2018-06-11T06:09:34.563Z,99.90
2018-06-11T06:12:02.573Z,99.90
2018-06-11T06:14:30.701Z,99.90
2018-06-11T06:16:58.730Z,99.90
2018-06-11T06:19:26.840Z,99.90
2018-06-11T06:21:54.932Z,99.90
2018-06-11T06:24:22.985Z,99.90
2018-06-11T06:26:51.014Z,99.90
2018-06-11T06:29:19.134Z,99.90
2018-06-11T06:31:47.141Z,99.90
2018-06-11T06:34:15.400Z,99.90
2018-06-11T06:36:43.356Z,99.90
2018-06-11T06:39:11.389Z,99.90
2018-06-11T06:41:39.384Z,99.90
2018-06-11T06:44:07.473Z,99.90
2018-06-11T06:46:35.483Z,99.90
2018-06-11T06:49:03.543Z,99.90
2018-06-11T06:51:31.580Z,99.90
2018-06-11T06:53:59.610Z,99.90
2018-06-11T06:56:27.634Z,99.90
2018-06-11T06:58:55.647Z,99.90
2018-06-11T07:01:23.772Z,99.90
2018-06-11T07:03:51.846Z,99.90
2018-06-11T07:06:19.908Z,99.90
2018-06-11T07:08:47.942Z,99.90
2018-06-11T07:11:15.963Z,99.90
2018-06-11T07:13:44.036Z,99.90
2018-06-11T07:16:12.113Z,99.90
2018-06-11T07:18:40.141Z,99.90
2018-06-11T07:21:08.168Z,99.90
2018-06-11T07:23:36.217Z,99.90
2018-06-11T07:26:04.245Z,99.90
2018-06-11T07:28:32.286Z,99.90
2018-06-11T07:31:00.338Z,99.90
2018-06-11T07:33:28.519Z,99.90
2018-06-11T07:35:56.581Z,99.90
2018-06-11T07:38:24.588Z,99.90
2018-06-11T07:40:52.659Z,99.90
2018-06-11T07:43:20.654Z,99.90
2018-06-11T07:48:16.430Z,99.90
2018-06-11T07:50:44.535Z,99.90
2018-06-11T07:53:12.519Z,99.90
2018-06-11T07:55:40.558Z,99.90
2018-06-11T07:58:08.574Z,99.90
2018-06-11T08:00:36.602Z,99.90
2018-06-11T08:03:04.673Z,99.90
2018-06-11T08:05:32.746Z,99.90
2018-06-11T08:08:00.819Z,99.90
2018-06-11T08:10:28.885Z,99.90
2018-06-11T08:12:56.896Z,99.90
2018-06-11T08:15:24.985Z,99.90
2018-06-11T08:17:53.000Z,99.90
2018-06-11T08:20:21.053Z,99.90
2018-06-11T08:22:49.075Z,99.90
2018-06-11T08:25:17.212Z,99.90
2018-06-11T08:27:45.320Z,99.90
2018-06-11T08:30:13.360Z,99.90
2018-06-11T08:32:41.425Z,99.90
2018-06-11T08:35:09.453Z,99.90
2018-06-11T08:37:37.484Z,99.90
2018-06-11T08:40:05.550Z,99.90
2018-06-11T08:42:33.564Z,99.90
2018-06-11T08:45:01.595Z,99.90
2018-06-11T08:47:29.621Z,99.90
2018-06-11T08:49:57.725Z,99.90
2018-06-11T08:52:25.834Z,99.90
2018-06-11T08:54:53.907Z,99.90
2018-06-11T08:57:21.893Z,99.90
2018-06-11T08:59:50.018Z,99.90
2018-06-11T09:02:18.061Z,99.90
2018-06-11T09:04:46.129Z,99.90
2018-06-11T09:07:14.197Z,99.90
2018-06-11T09:09:42.226Z,99.90
2018-06-11T09:12:10.253Z,99.90
2018-06-11T09:14:38.311Z,99.90
2018-06-11T09:17:06.357Z,99.90
2018-06-11T09:19:34.402Z,99.90
2018-06-11T09:22:02.419Z,99.90
2018-06-11T09:24:30.431Z,99.90
2018-06-11T09:26:59.136Z,99.90
2018-06-11T09:29:27.162Z,99.90
2018-06-11T09:31:55.502Z,99.90
2018-06-11T09:34:23.576Z,99.90
2018-06-11T09:36:51.596Z,99.90
2018-06-11T09:39:19.648Z,99.90
2018-06-11T09:41:47.721Z,99.90
2018-06-11T09:44:15.796Z,99.90
2018-06-11T09:46:43.871Z,99.90
2018-06-11T09:49:11.901Z,99.90
2018-06-11T09:51:39.912Z,99.90
2018-06-11T09:54:08.088Z,99.90
2018-06-11T09:56:36.166Z,99.90
2018-06-11T09:59:04.168Z,99.90
2018-06-11T10:01:32.309Z,99.90
2018-06-11T10:04:00.309Z,99.90
2018-06-11T10:06:28.328Z,99.90
2018-06-11T10:08:56.418Z,99.90
2018-06-11T10:11:24.494Z,99.90
2018-06-11T10:13:52.583Z,99.90
2018-06-11T10:16:20.668Z,99.90
2018-06-11T10:18:48.700Z,99.90
2018-06-11T10:21:16.766Z,99.90
2018-06-11T10:23:44.853Z,99.90
2018-06-11T10:26:12.889Z,99.90
2018-06-11T10:28:40.900Z,99.90
2018-06-11T10:31:08.987Z,99.90
2018-06-11T10:33:37.053Z,99.90
2018-06-11T10:36:05.113Z,99.90
2018-06-11T10:38:33.172Z,99.90
2018-06-11T10:41:01.188Z,99.90
2018-06-11T10:43:29.212Z,99.90
2018-06-11T10:45:57.231Z,99.90
2018-06-11T10:48:25.378Z,99.90
2018-06-11T10:50:53.401Z,99.90
2018-06-11T10:53:21.531Z,99.90
2018-06-11T10:55:49.564Z,99.90
2018-06-11T10:58:17.676Z,99.90
2018-06-11T11:00:45.749Z,99.90
2018-06-11T11:03:13.786Z,99.90
2018-06-11T11:05:41.829Z,99.90
2018-06-11T11:08:09.860Z,99.90
2018-06-11T11:10:37.892Z,99.90
2018-06-11T11:13:06.050Z,99.90
2018-06-11T11:15:34.178Z,99.90
2018-06-11T11:18:02.272Z,99.90
2018-06-11T11:20:30.417Z,99.90
2018-06-11T11:22:58.462Z,99.90
2018-06-11T11:25:26.522Z,99.90
2018-06-11T11:27:54.556Z,99.90
2018-06-11T11:30:22.637Z,99.90
2018-06-11T11:32:50.665Z,99.90
2018-06-11T11:35:18.748Z,99.90
2018-06-11T11:37:46.800Z,99.90
2018-06-11T11:40:14.901Z,99.90
2018-06-11T11:42:42.967Z,99.90
2018-06-11T11:45:10.994Z,99.90
2018-06-11T11:47:39.020Z,99.90
2018-06-11T11:50:07.041Z,99.90
2018-06-11T11:52:35.104Z,99.90
2018-06-11T11:55:03.153Z,99.90
2018-06-11T11:57:31.325Z,99.90
2018-06-11T11:59:59.334Z,99.90
2018-06-11T12:02:27.367Z,99.90
2018-06-11T12:04:55.414Z,99.90
2018-06-11T12:07:23.433Z,99.90
2018-06-11T12:09:51.484Z,99.90
2018-06-11T12:12:20.332Z,99.90
2018-06-11T12:14:48.448Z,94.00
2018-06-11T12:17:16.467Z,83.00
2018-06-11T12:19:44.584Z,71.90
2018-06-11T12:22:14.129Z,70.40
2018-06-11T12:24:42.889Z,58.90
2018-06-11T12:27:14.343Z,56.10
2018-06-11T12:34:38.021Z,49.40
2018-06-11T12:37:06.092Z,48.10
2018-06-11T12:39:34.202Z,46.10
2018-06-11T12:42:02.258Z,43.10
2018-06-11T12:44:30.281Z,42.10
2018-06-11T12:46:58.307Z,41.00
2018-06-11T12:49:26.346Z,41.70
2018-06-11T12:51:54.346Z,39.30
2018-06-11T12:54:22.543Z,39.80
2018-06-11T12:56:50.531Z,39.00
2018-06-11T12:59:18.582Z,36.40
2018-06-11T13:01:46.649Z,35.90
2018-06-11T13:04:14.649Z,35.50
2018-06-11T13:09:10.441Z,37.20
2018-06-11T13:11:38.873Z,35.30
2018-06-11T13:14:06.979Z,36.00
2018-06-11T13:19:02.719Z,34.90
2018-06-11T13:21:30.750Z,34.90
2018-06-11T13:23:58.876Z,35.50
2018-06-11T13:26:26.931Z,34.90
2018-06-11T13:28:54.977Z,35.40
2018-06-11T13:31:22.992Z,35.80
2018-06-11T13:33:51.043Z,35.60
2018-06-11T13:36:19.089Z,35.10
2018-06-11T13:38:47.237Z,34.10
2018-06-11T13:41:15.264Z,34.20
2018-06-11T13:43:43.342Z,34.90
2018-06-11T13:46:11.462Z,35.20
2018-06-11T13:48:39.460Z,35.20
2018-06-11T13:51:07.511Z,36.30
2018-06-11T13:53:35.525Z,36.90
2018-06-11T13:58:31.314Z,36.10
2018-06-11T14:00:59.351Z,34.70
2018-06-11T14:03:28.631Z,35.30
2018-06-11T14:05:56.638Z,34.90
2018-06-11T14:08:24.713Z,34.60
2018-06-11T14:10:52.810Z,36.20
2018-06-11T14:13:27.477Z,36.20
2018-06-11T14:15:55.619Z,36.60
2018-06-11T14:18:23.648Z,35.40
2018-06-11T14:20:51.701Z,35.10
2018-06-11T14:23:19.718Z,35.40
2018-06-11T14:25:47.759Z,34.80
2018-06-11T14:28:15.849Z,34.20
2018-06-11T14:30:43.894Z,34.70
2018-06-11T14:33:11.992Z,35.70
2018-06-11T14:35:40.038Z,36.70
2018-06-11T14:38:08.062Z,36.20
2018-06-11T14:40:36.106Z,38.00
2018-06-11T14:43:04.192Z,38.50
2018-06-11T14:45:32.243Z,38.10
2018-06-11T14:48:00.309Z,37.00
2018-06-11T14:50:28.345Z,37.80
2018-06-11T14:52:56.365Z,37.20
2018-06-11T14:55:24.476Z,37.30
2018-06-11T14:57:52.552Z,37.20
2018-06-11T15:00:20.507Z,38.00
2018-06-11T15:02:48.592Z,37.80
2018-06-11T15:05:16.591Z,37.20
2018-06-11T15:07:44.705Z,38.90
2018-06-11T15:10:12.794Z,38.70
2018-06-11T15:12:41.091Z,36.20
2018-06-11T15:15:09.133Z,37.30
2018-06-11T15:17:37.220Z,36.10
2018-06-11T15:20:05.305Z,35.70
2018-06-11T15:22:33.368Z,36.20
2018-06-11T15:25:01.463Z,37.20
2018-06-11T15:27:29.527Z,35.90
2018-06-11T15:29:57.576Z,34.70
2018-06-11T15:32:25.636Z,34.90
2018-06-11T15:34:53.913Z,35.30
2018-06-11T15:37:22.053Z,35.50
2018-06-11T15:39:50.077Z,37.20
2018-06-11T15:42:18.157Z,37.50
2018-06-11T15:44:46.214Z,37.80
2018-06-11T15:47:14.280Z,37.70
2018-06-11T15:49:42.332Z,36.50
2018-06-11T15:52:10.459Z,35.40
2018-06-11T15:54:38.575Z,35.20
2018-06-11T15:57:06.628Z,36.60
2018-06-11T15:59:34.661Z,36.50
2018-06-11T16:02:02.837Z,36.40
2018-06-11T16:04:30.847Z,37.70
2018-06-11T16:06:58.882Z,37.50
2018-06-11T16:09:26.998Z,35.70
2018-06-11T16:11:55.025Z,35.60
2018-06-11T16:14:23.041Z,35.90
2018-06-11T16:16:51.107Z,37.50
2018-06-11T16:19:19.123Z,38.30
2018-06-11T16:21:47.174Z,37.00
2018-06-11T16:26:42.938Z,38.00
2018-06-11T16:29:11.030Z,38.00
2018-06-11T16:31:39.062Z,38.80
2018-06-11T16:34:07.090Z,38.40
2018-06-11T16:36:35.237Z,39.60
2018-06-11T16:39:03.446Z,39.30
2018-06-11T16:41:31.829Z,38.90
2018-06-11T16:43:59.833Z,38.60
2018-06-11T16:46:27.958Z,38.80
2018-06-11T16:48:56.113Z,38.40
2018-06-11T16:51:24.038Z,38.90
2018-06-11T16:53:52.148Z,38.20
2018-06-11T16:56:20.165Z,39.30
2018-06-11T16:58:48.215Z,39.20
2018-06-11T17:01:16.280Z,40.80
2018-06-11T17:03:44.348Z,40.50
2018-06-11T17:06:12.455Z,40.40
2018-06-11T17:08:40.498Z,42.00
2018-06-11T17:11:08.700Z,41.50
2018-06-11T17:13:37.591Z,42.00
2018-06-11T17:16:05.628Z,42.20
2018-06-11T17:18:33.871Z,43.10
2018-06-11T17:21:02.097Z,43.40
2018-06-11T17:23:30.141Z,44.30
2018-06-11T17:25:58.149Z,45.70
2018-06-11T17:28:26.303Z,45.80
2018-06-11T17:30:55.143Z,45.70
2018-06-11T17:33:24.296Z,46.20
2018-06-11T17:35:52.405Z,46.90
2018-06-11T17:38:23.910Z,47.20
2018-06-11T17:40:52.165Z,48.20
2018-06-11T17:43:20.269Z,48.10
2018-06-11T17:45:49.525Z,48.10
2018-06-11T17:48:18.429Z,48.70
2018-06-11T17:53:15.553Z,49.70
2018-06-11T17:55:43.878Z,49.90
2018-06-11T17:58:11.904Z,50.60
2018-06-11T18:00:39.912Z,50.40
2018-06-11T18:03:08.329Z,50.90
2018-06-11T18:05:36.399Z,51.20
2018-06-11T18:08:04.714Z,51.40
2018-06-11T18:10:32.738Z,51.40
2018-06-11T18:13:01.121Z,52.30
2018-06-11T18:15:29.402Z,52.40
2018-06-11T18:17:57.929Z,52.50
2018-06-11T18:20:26.139Z,52.80
2018-06-11T18:22:54.254Z,52.80
2018-06-11T18:25:22.326Z,53.20
2018-06-11T18:27:50.366Z,53.30
2018-06-11T18:30:18.388Z,53.40
2018-06-11T18:32:46.452Z,53.80
2018-06-11T18:35:14.499Z,54.20
2018-06-11T18:37:42.567Z,54.20
2018-06-11T18:40:10.667Z,54.50
2018-06-11T18:42:38.643Z,55.10
2018-06-11T18:45:06.774Z,55.30
2018-06-11T18:47:34.857Z,55.30
2018-06-11T18:50:02.893Z,56.30
2018-06-11T18:52:30.904Z,55.30
2018-06-11T18:54:58.978Z,55.70
2018-06-11T18:57:27.075Z,55.70
2018-06-11T18:59:55.608Z,56.00
2018-06-11T19:02:24.731Z,56.60
2018-06-11T19:04:53.338Z,56.90
2018-06-11T19:07:21.401Z,57.30
2018-06-11T19:09:51.820Z,57.70
2018-06-11T19:12:21.147Z,57.80
2018-06-11T19:14:49.254Z,58.00
2018-06-11T19:17:17.254Z,58.70
2018-06-11T19:19:45.343Z,58.80
2018-06-11T19:22:13.428Z,59.70
2018-06-11T19:24:42.038Z,60.10
2018-06-11T19:27:10.742Z,60.60
2018-06-11T19:29:38.972Z,60.80
2018-06-11T19:32:07.003Z,62.10
2018-06-11T19:34:35.123Z,62.20
2018-06-11T19:37:03.171Z,65.10
2018-06-11T19:39:31.225Z,66.40
2018-06-11T19:41:59.239Z,64.90
2018-06-11T19:44:27.325Z,67.30
2018-06-11T19:46:55.351Z,65.50
2018-06-11T19:49:24.281Z,66.60
2018-06-11T19:51:53.243Z,66.40
2018-06-11T19:54:21.371Z,66.70
2018-06-11T19:56:49.352Z,68.00
2018-06-11T19:59:17.458Z,68.70
2018-06-11T20:01:45.497Z,69.20
2018-06-11T20:04:13.515Z,69.30
2018-06-11T20:06:41.668Z,74.30
2018-06-11T20:09:09.720Z,73.00
2018-06-11T20:11:37.786Z,71.20
2018-06-11T20:14:05.811Z,72.50
2018-06-11T20:16:33.868Z,74.00
2018-06-11T20:19:02.028Z,73.30
2018-06-11T20:21:30.331Z,74.40
2018-06-11T20:23:58.536Z,73.60
2018-06-11T20:26:26.679Z,73.80
2018-06-11T20:28:54.828Z,75.20
2018-06-11T20:31:22.894Z,75.10
2018-06-11T20:33:50.973Z,75.70
2018-06-11T20:36:19.258Z,77.10
2018-06-11T20:38:48.698Z,77.70
2018-06-11T20:41:16.998Z,80.40
2018-06-11T20:43:45.013Z,79.40
2018-06-11T20:46:13.166Z,80.10
2018-06-11T20:48:41.301Z,81.20
2018-06-11T20:51:09.416Z,83.80
2018-06-11T20:53:37.435Z,84.90
2018-06-11T20:56:05.448Z,87.60
2018-06-11T20:58:33.556Z,86.10
2018-06-11T21:01:01.619Z,87.00
2018-06-11T21:03:29.659Z,88.40
2018-06-11T21:05:57.720Z,90.30
2018-06-11T21:08:25.777Z,90.60
2018-06-11T21:10:53.871Z,90.60
2018-06-11T21:13:21.876Z,90.90
2018-06-11T21:15:49.954Z,91.70
2018-06-11T21:18:17.957Z,93.30
2018-06-11T21:20:45.994Z,94.20
2018-06-11T21:23:14.022Z,95.40
2018-06-11T21:30:37.544Z,96.00
2018-06-11T21:33:05.654Z,96.90
2018-06-11T21:35:33.800Z,98.50
2018-06-11T21:38:01.857Z,98.80
2018-06-11T21:40:29.931Z,99.90
2018-06-11T21:42:57.973Z,99.90
2018-06-11T21:45:26.022Z,99.90
2018-06-11T21:47:54.056Z,99.90
2018-06-11T21:50:22.082Z,99.90
2018-06-11T21:52:50.120Z,99.90
2018-06-11T21:55:18.133Z,99.90
2018-06-11T21:57:46.233Z,99.90
2018-06-11T22:00:14.294Z,99.90
2018-06-11T22:02:42.377Z,99.90
2018-06-11T22:05:10.386Z,99.90
2018-06-11T22:07:38.418Z,99.90
2018-06-11T22:10:06.496Z,99.90
2018-06-11T22:12:34.530Z,99.90
2018-06-11T22:15:02.571Z,99.90
2018-06-11T22:17:30.606Z,99.90
2018-06-11T22:19:58.615Z,99.90
2018-06-11T22:22:26.685Z,99.90
2018-06-11T22:24:54.815Z,99.90
2018-06-11T22:27:22.836Z,99.90
2018-06-11T22:29:50.889Z,99.90
2018-06-11T22:32:18.908Z,99.90
2018-06-11T22:34:47.014Z,99.90
2018-06-11T22:37:15.056Z,99.90
2018-06-11T22:39:43.091Z,99.90
2018-06-11T22:42:12.129Z,99.90
2018-06-11T22:44:40.148Z,99.90
2018-06-11T22:47:08.190Z,99.90
2018-06-11T22:49:36.192Z,99.90
2018-06-11T22:52:04.217Z,99.90
2018-06-11T22:57:00.078Z,99.90
2018-06-11T22:59:28.100Z,99.90
2018-06-11T23:01:56.222Z,99.90
2018-06-11T23:04:24.305Z,99.90
2018-06-11T23:06:52.332Z,99.90
2018-06-11T23:09:20.428Z,99.90
2018-06-11T23:11:48.468Z,99.90
2018-06-11T23:14:16.468Z,99.90
2018-06-11T23:16:44.551Z,99.90
2018-06-11T23:19:12.582Z,99.90
2018-06-11T23:21:40.696Z,99.90
2018-06-11T23:24:08.722Z,99.90
2018-06-11T23:26:36.767Z,99.90
2018-06-11T23:29:04.902Z,99.90
2018-06-11T23:31:32.907Z,99.90
2018-06-11T23:34:00.941Z,99.90
2018-06-11T23:36:28.962Z,99.90
2018-06-11T23:38:56.993Z,99.90
2018-06-11T23:41:25.059Z,99.90
2018-06-11T23:43:53.102Z,99.90
2018-06-11T23:46:21.116Z,99.90
2018-06-11T23:48:49.168Z,99.90
2018-06-11T23:51:17.175Z,99.90
2018-06-11T23:53:45.213Z,99.90
2018-06-11T23:56:13.217Z,99.90
2018-06-11T23:58:41.249Z,99.90
